sensor_id;sensor_type;location;lat;lon;timestamp;P1;durP1;ratioP1;P2;durP2;ratioP2
1296;SDS011;641;48.492;9.184;2022-11-25T05:59:24;13.57;;;6.13;;
1296;SDS011;641;48.492;9.184;2022-11-25T06:01:51;15.47;;;7.80;;
1296;SDS011;641;48.492;9.184;2022-11-25T06:04:17;14.50;;;7.37;;
1296;SDS011;641;48.492;9.184;2022-11-25T07:33:21;19.20;;;8.00;;
1296;SDS011;641;48.492;9.184;2022-11-25T07:35:46;20.53;;;7.27;;
1296;SDS011;641;48.492;9.184;2022-11-25T07:38:12;12.60;;;6.40;;
1296;SDS011;641;48.492;9.184;2022-11-25T07:40:37;12.37;;;6.67;;
1296;SDS011;641;48.492;9.184;2022-11-25T07:43:03;14.83;;;7.50;;
1296;SDS011;641;48.492;9.184;2022-11-25T07:45:29;12.60;;;7.20;;
1296;SDS011;641;48.492;9.184;2022-11-25T07:47:54;14.70;;;7.30;;
1296;SDS011;641;48.492;9.184;2022-11-25T07:50:20;14.17;;;6.93;;
1296;SDS011;641;48.492;9.184;2022-11-25T07:52:45;12.10;;;5.80;;
1296;SDS011;641;48.492;9.184;2022-11-25T07:55:11;15.77;;;6.10;;
1296;SDS011;641;48.492;9.184;2022-11-25T07:57:36;14.23;;;5.37;;
1296;SDS011;641;48.492;9.184;2022-11-25T08:00:02;14.70;;;8.33;;
1296;SDS011;641;48.492;9.184;2022-11-25T08:02:29;16.20;;;7.17;;
1296;SDS011;641;48.492;9.184;2022-11-25T08:04:54;13.50;;;6.37;;
1296;SDS011;641;48.492;9.184;2022-11-25T08:07:20;17.50;;;8.10;;
1296;SDS011;641;48.492;9.184;2022-11-25T08:09:45;15.93;;;6.63;;
1296;SDS011;641;48.492;9.184;2022-11-25T08:12:11;13.53;;;6.13;;
1296;SDS011;641;48.492;9.184;2022-11-25T08:14:36;26.17;;;6.73;;
1296;SDS011;641;48.492;9.184;2022-11-25T08:17:02;15.80;;;6.50;;
1296;SDS011;641;48.492;9.184;2022-11-25T08:19:30;18.33;;;7.20;;
1296;SDS011;641;48.492;9.184;2022-11-25T08:21:56;16.60;;;6.90;;
1296;SDS011;641;48.492;9.184;2022-11-25T08:24:21;28.87;;;7.93;;
1296;SDS011;641;48.492;9.184;2022-11-25T08:26:47;17.50;;;6.53;;
1296;SDS011;641;48.492;9.184;2022-11-25T08:29:14;17.00;;;7.43;;
1296;SDS011;641;48.492;9.184;2022-11-25T08:31:40;19.37;;;7.40;;
1296;SDS011;641;48.492;9.184;2022-11-25T08:34:06;14.67;;;6.90;;
1296;SDS011;641;48.492;9.184;2022-11-25T08:36:33;13.73;;;7.03;;
1296;SDS011;641;48.492;9.184;2022-11-25T08:38:59;15.20;;;7.10;;
1296;SDS011;641;48.492;9.184;2022-11-25T08:41:28;14.77;;;7.57;;
1296;SDS011;641;48.492;9.184;2022-11-25T08:43:57;19.37;;;7.40;;
1296;SDS011;641;48.492;9.184;2022-11-25T08:46:26;16.07;;;6.50;;
1296;SDS011;641;48.492;9.184;2022-11-25T08:48:53;14.30;;;5.87;;
1296;SDS011;641;48.492;9.184;2022-11-25T08:51:21;14.40;;;6.83;;
1296;SDS011;641;48.492;9.184;2022-11-25T08:53:48;15.63;;;6.63;;
1296;SDS011;641;48.492;9.184;2022-11-25T08:56:17;13.27;;;6.33;;
1296;SDS011;641;48.492;9.184;2022-11-25T08:58:44;14.00;;;6.43;;
1296;SDS011;641;48.492;9.184;2022-11-25T09:01:10;17.90;;;8.60;;
1296;SDS011;641;48.492;9.184;2022-11-25T09:03:38;18.70;;;8.47;;
1296;SDS011;641;48.492;9.184;2022-11-25T09:06:06;17.83;;;8.07;;
1296;SDS011;641;48.492;9.184;2022-11-25T09:08:32;20.83;;;9.53;;
1296;SDS011;641;48.492;9.184;2022-11-25T09:10:58;16.20;;;9.00;;
1296;SDS011;641;48.492;9.184;2022-11-25T09:13:24;24.87;;;9.50;;
1296;SDS011;641;48.492;9.184;2022-11-25T09:15:49;21.90;;;9.60;;
1296;SDS011;641;48.492;9.184;2022-11-25T09:18:15;20.00;;;10.43;;
1296;SDS011;641;48.492;9.184;2022-11-25T09:20:43;22.27;;;9.80;;
1296;SDS011;641;48.492;9.184;2022-11-25T09:23:08;17.50;;;9.33;;
1296;SDS011;641;48.492;9.184;2022-11-25T09:25:34;15.77;;;9.00;;
1296;SDS011;641;48.492;9.184;2022-11-25T09:28:00;18.90;;;10.30;;
1296;SDS011;641;48.492;9.184;2022-11-25T09:30:26;16.60;;;9.13;;
1296;SDS011;641;48.492;9.184;2022-11-25T09:32:52;17.47;;;9.30;;
1296;SDS011;641;48.492;9.184;2022-11-25T09:35:19;21.10;;;10.13;;
1296;SDS011;641;48.492;9.184;2022-11-25T09:37:45;15.03;;;8.73;;
1296;SDS011;641;48.492;9.184;2022-11-25T09:40:15;17.70;;;9.47;;
1296;SDS011;641;48.492;9.184;2022-11-25T09:45:50;22.63;;;10.37;;
1296;SDS011;641;48.492;9.184;2022-11-25T09:49:13;16.27;;;8.77;;
1296;SDS011;641;48.492;9.184;2022-11-25T09:54:40;21.50;;;8.70;;
1296;SDS011;641;48.492;9.184;2022-11-25T10:00:05;23.03;;;9.40;;
1296;SDS011;641;48.492;9.184;2022-11-25T10:05:24;22.90;;;8.77;;
1296;SDS011;641;48.492;9.184;2022-11-25T10:07:54;23.33;;;8.70;;
1296;SDS011;641;48.492;9.184;2022-11-25T10:10:44;15.20;;;7.20;;
1296;SDS011;641;48.492;9.184;2022-11-25T10:13:15;17.03;;;7.70;;
1296;SDS011;641;48.492;9.184;2022-11-25T10:15:49;18.50;;;8.40;;
1296;SDS011;641;48.492;9.184;2022-11-25T10:18:18;19.13;;;6.80;;
1296;SDS011;641;48.492;9.184;2022-11-25T10:20:49;23.33;;;7.43;;
1296;SDS011;641;48.492;9.184;2022-11-25T10:25:49;15.30;;;7.17;;
1296;SDS011;641;48.492;9.184;2022-11-25T10:28:21;14.63;;;7.27;;
1296;SDS011;641;48.492;9.184;2022-11-25T10:33:19;21.73;;;8.33;;
1296;SDS011;641;48.492;9.184;2022-11-25T10:35:55;15.83;;;7.70;;
1296;SDS011;641;48.492;9.184;2022-11-25T10:38:23;22.13;;;7.67;;
1296;SDS011;641;48.492;9.184;2022-11-25T10:40:53;15.67;;;7.23;;
1296;SDS011;641;48.492;9.184;2022-11-25T10:43:19;14.13;;;7.60;;
1296;SDS011;641;48.492;9.184;2022-11-25T10:46:01;14.27;;;7.00;;
1296;SDS011;641;48.492;9.184;2022-11-25T10:49:18;15.60;;;7.20;;
1296;SDS011;641;48.492;9.184;2022-11-25T10:51:34;14.43;;;6.30;;
1296;SDS011;641;48.492;9.184;2022-11-25T10:54:13;15.70;;;6.10;;
1296;SDS011;641;48.492;9.184;2022-11-25T10:56:48;13.63;;;5.90;;
1296;SDS011;641;48.492;9.184;2022-11-25T10:59:27;12.00;;;6.03;;
1296;SDS011;641;48.492;9.184;2022-11-25T11:02:25;13.10;;;5.90;;
1296;SDS011;641;48.492;9.184;2022-11-25T11:04:54;11.97;;;6.03;;
1296;SDS011;641;48.492;9.184;2022-11-25T11:10:14;13.27;;;6.07;;
1296;SDS011;641;48.492;9.184;2022-11-25T11:12:53;14.07;;;6.40;;
1296;SDS011;641;48.492;9.184;2022-11-25T11:15:21;11.50;;;4.50;;
1296;SDS011;641;48.492;9.184;2022-11-25T11:17:49;17.10;;;6.70;;
1296;SDS011;641;48.492;9.184;2022-11-25T11:20:20;14.77;;;6.27;;
1296;SDS011;641;48.492;9.184;2022-11-25T11:22:57;11.60;;;5.87;;
1296;SDS011;641;48.492;9.184;2022-11-25T11:25:27;13.87;;;6.17;;
1296;SDS011;641;48.492;9.184;2022-11-25T11:27:55;11.20;;;6.17;;
1296;SDS011;641;48.492;9.184;2022-11-25T11:30:38;14.00;;;6.70;;
1296;SDS011;641;48.492;9.184;2022-11-25T11:33:27;10.13;;;5.07;;
1296;SDS011;641;48.492;9.184;2022-11-25T11:36:11;12.70;;;5.97;;
1296;SDS011;641;48.492;9.184;2022-11-25T11:38:49;16.97;;;6.30;;
1296;SDS011;641;48.492;9.184;2022-11-25T11:47:32;17.33;;;7.00;;
1296;SDS011;641;48.492;9.184;2022-11-25T11:50:16;13.57;;;6.17;;
1296;SDS011;641;48.492;9.184;2022-11-25T11:58:36;17.13;;;4.87;;
1296;SDS011;641;48.492;9.184;2022-11-25T12:01:33;13.37;;;5.63;;
1296;SDS011;641;48.492;9.184;2022-11-25T12:04:30;11.97;;;5.00;;
1296;SDS011;641;48.492;9.184;2022-11-25T12:07:31;11.23;;;4.33;;
1296;SDS011;641;48.492;9.184;2022-11-25T12:12:40;13.67;;;4.73;;
1296;SDS011;641;48.492;9.184;2022-11-25T12:21:12;14.10;;;4.43;;
1296;SDS011;641;48.492;9.184;2022-11-25T12:23:57;10.63;;;4.50;;
1296;SDS011;641;48.492;9.184;2022-11-25T12:26:56;13.10;;;5.13;;
1296;SDS011;641;48.492;9.184;2022-11-25T12:29:34;12.37;;;4.97;;
1296;SDS011;641;48.492;9.184;2022-11-25T12:37:31;12.83;;;4.60;;
1296;SDS011;641;48.492;9.184;2022-11-25T12:42:36;10.90;;;4.33;;
1296;SDS011;641;48.492;9.184;2022-11-25T12:45:06;10.40;;;4.60;;
1296;SDS011;641;48.492;9.184;2022-11-25T12:47:48;10.50;;;3.80;;
1296;SDS011;641;48.492;9.184;2022-11-25T12:50:15;11.73;;;5.47;;
1296;SDS011;641;48.492;9.184;2022-11-25T12:55:51;10.97;;;4.53;;
1296;SDS011;641;48.492;9.184;2022-11-25T13:01:35;15.30;;;5.47;;
1296;SDS011;641;48.492;9.184;2022-11-25T13:10:07;12.27;;;5.47;;
1296;SDS011;641;48.492;9.184;2022-11-25T13:13:17;12.77;;;4.53;;
1296;SDS011;641;48.492;9.184;2022-11-25T13:16:13;14.00;;;5.30;;
1296;SDS011;641;48.492;9.184;2022-11-25T13:18:42;10.20;;;4.27;;
1296;SDS011;641;48.492;9.184;2022-11-25T13:21:37;13.93;;;4.67;;
1296;SDS011;641;48.492;9.184;2022-11-25T13:30:36;10.37;;;4.20;;
1296;SDS011;641;48.492;9.184;2022-11-25T13:36:14;8.70;;;2.50;;
1296;SDS011;641;48.492;9.184;2022-11-25T13:49:54;9.67;;;2.10;;
1296;SDS011;641;48.492;9.184;2022-11-25T14:15:15;8.60;;;1.93;;
1296;SDS011;641;48.492;9.184;2022-11-25T14:21:25;7.67;;;1.60;;
1296;SDS011;641;48.492;9.184;2022-11-25T14:26:51;6.27;;;1.13;;
1296;SDS011;641;48.492;9.184;2022-11-25T14:32:17;6.33;;;1.40;;
1296;SDS011;641;48.492;9.184;2022-11-25T14:34:47;7.87;;;1.87;;
1296;SDS011;641;48.492;9.184;2022-11-25T14:37:22;6.17;;;1.40;;
1296;SDS011;641;48.492;9.184;2022-11-25T14:40:05;8.50;;;1.80;;
1296;SDS011;641;48.492;9.184;2022-11-25T14:42:38;6.33;;;1.57;;
1296;SDS011;641;48.492;9.184;2022-11-25T14:47:47;6.50;;;1.27;;
1296;SDS011;641;48.492;9.184;2022-11-25T14:50:13;7.07;;;1.60;;
1296;SDS011;641;48.492;9.184;2022-11-25T14:52:39;6.57;;;1.30;;
1296;SDS011;641;48.492;9.184;2022-11-25T14:55:11;7.30;;;1.80;;
1296;SDS011;641;48.492;9.184;2022-11-25T14:57:38;9.00;;;1.60;;
1296;SDS011;641;48.492;9.184;2022-11-25T15:00:11;7.07;;;1.73;;
1296;SDS011;641;48.492;9.184;2022-11-25T15:02:58;7.10;;;1.90;;
1296;SDS011;641;48.492;9.184;2022-11-25T15:05:30;7.00;;;1.57;;
1296;SDS011;641;48.492;9.184;2022-11-25T15:08:07;7.10;;;1.73;;
1296;SDS011;641;48.492;9.184;2022-11-25T15:16:39;11.03;;;1.67;;
1296;SDS011;641;48.492;9.184;2022-11-25T15:21:14;9.73;;;2.10;;
1296;SDS011;641;48.492;9.184;2022-11-25T15:23:43;9.20;;;1.70;;
1296;SDS011;641;48.492;9.184;2022-11-25T15:26:16;9.90;;;1.87;;
1296;SDS011;641;48.492;9.184;2022-11-25T15:28:46;8.40;;;1.90;;
1296;SDS011;641;48.492;9.184;2022-11-25T15:31:24;7.87;;;1.57;;
1296;SDS011;641;48.492;9.184;2022-11-25T15:33:56;8.03;;;1.67;;
1296;SDS011;641;48.492;9.184;2022-11-25T15:36:24;11.53;;;1.83;;
1296;SDS011;641;48.492;9.184;2022-11-25T15:38:51;9.00;;;1.33;;
1296;SDS011;641;48.492;9.184;2022-11-25T15:43:55;12.13;;;2.00;;
1296;SDS011;641;48.492;9.184;2022-11-25T15:46:27;11.17;;;2.10;;
1296;SDS011;641;48.492;9.184;2022-11-25T15:48:55;7.40;;;1.70;;
1296;SDS011;641;48.492;9.184;2022-11-25T15:56:32;13.53;;;2.00;;
1296;SDS011;641;48.492;9.184;2022-11-25T15:59:01;10.40;;;1.80;;
1296;SDS011;641;48.492;9.184;2022-11-25T16:01:27;10.43;;;1.77;;
1296;SDS011;641;48.492;9.184;2022-11-25T16:04:08;11.70;;;2.40;;
1296;SDS011;641;48.492;9.184;2022-11-25T16:06:54;9.47;;;2.00;;
1296;SDS011;641;48.492;9.184;2022-11-25T16:09:21;11.57;;;1.67;;
1296;SDS011;641;48.492;9.184;2022-11-25T16:11:49;10.57;;;1.40;;
1296;SDS011;641;48.492;9.184;2022-11-25T16:14:16;8.30;;;1.90;;
1296;SDS011;641;48.492;9.184;2022-11-25T16:16:44;9.80;;;1.90;;
1296;SDS011;641;48.492;9.184;2022-11-25T16:19:11;11.20;;;1.97;;
1296;SDS011;641;48.492;9.184;2022-11-25T16:21:42;7.63;;;1.60;;
1296;SDS011;641;48.492;9.184;2022-11-25T16:27:02;9.90;;;2.90;;
1296;SDS011;641;48.492;9.184;2022-11-25T16:29:46;15.90;;;5.63;;
1296;SDS011;641;48.492;9.184;2022-11-25T16:34:50;17.33;;;7.20;;
1296;SDS011;641;48.492;9.184;2022-11-25T16:37:16;18.13;;;7.67;;
1296;SDS011;641;48.492;9.184;2022-11-25T17:04:09;11.23;;;2.60;;
1296;SDS011;641;48.492;9.184;2022-11-25T17:06:36;11.30;;;2.30;;
1296;SDS011;641;48.492;9.184;2022-11-25T17:09:02;10.70;;;2.60;;
1296;SDS011;641;48.492;9.184;2022-11-25T17:11:29;10.50;;;2.07;;
1296;SDS011;641;48.492;9.184;2022-11-25T17:14:00;14.17;;;2.93;;
1296;SDS011;641;48.492;9.184;2022-11-25T17:16:28;9.63;;;2.70;;
1296;SDS011;641;48.492;9.184;2022-11-25T17:18:55;11.47;;;2.80;;
1296;SDS011;641;48.492;9.184;2022-11-25T17:21:23;9.90;;;2.87;;
1296;SDS011;641;48.492;9.184;2022-11-25T17:23:52;12.50;;;2.73;;
1296;SDS011;641;48.492;9.184;2022-11-25T17:26:19;11.63;;;2.73;;
1296;SDS011;641;48.492;9.184;2022-11-25T17:28:53;11.00;;;3.30;;
1296;SDS011;641;48.492;9.184;2022-11-25T17:31:25;11.03;;;3.80;;
1296;SDS011;641;48.492;9.184;2022-11-25T17:33:54;13.43;;;3.10;;
1296;SDS011;641;48.492;9.184;2022-11-25T17:36:34;10.53;;;2.80;;
1296;SDS011;641;48.492;9.184;2022-11-25T21:45:11;20.00;;;8.27;;
1296;SDS011;641;48.492;9.184;2022-11-25T21:47:39;19.80;;;8.33;;
1296;SDS011;641;48.492;9.184;2022-11-25T21:50:15;16.00;;;7.90;;
1296;SDS011;641;48.492;9.184;2022-11-25T21:52:42;20.27;;;10.37;;
1296;SDS011;641;48.492;9.184;2022-11-25T21:55:08;16.70;;;8.70;;
1296;SDS011;641;48.492;9.184;2022-11-25T21:57:36;17.13;;;9.60;;
1296;SDS011;641;48.492;9.184;2022-11-25T22:00:04;18.77;;;8.77;;
1296;SDS011;641;48.492;9.184;2022-11-25T22:02:50;18.47;;;8.53;;
1296;SDS011;641;48.492;9.184;2022-11-25T22:05:17;16.57;;;9.43;;
1296;SDS011;641;48.492;9.184;2022-11-25T22:07:44;22.20;;;9.57;;
1296;SDS011;641;48.492;9.184;2022-11-25T22:10:12;17.20;;;8.80;;
1296;SDS011;641;48.492;9.184;2022-11-25T22:12:39;18.07;;;8.80;;
1296;SDS011;641;48.492;9.184;2022-11-25T22:15:28;18.57;;;9.77;;
1296;SDS011;641;48.492;9.184;2022-11-25T22:17:54;20.90;;;9.13;;
1296;SDS011;641;48.492;9.184;2022-11-25T22:20:31;17.50;;;8.33;;
1296;SDS011;641;48.492;9.184;2022-11-25T22:22:58;16.63;;;10.00;;
1296;SDS011;641;48.492;9.184;2022-11-25T22:25:26;22.57;;;10.53;;
1296;SDS011;641;48.492;9.184;2022-11-25T22:27:52;19.83;;;10.40;;
1296;SDS011;641;48.492;9.184;2022-11-25T22:30:19;28.83;;;10.10;;
1296;SDS011;641;48.492;9.184;2022-11-25T22:32:47;21.93;;;10.23;;
1296;SDS011;641;48.492;9.184;2022-11-25T22:35:17;16.80;;;9.10;;
1296;SDS011;641;48.492;9.184;2022-11-25T22:37:44;18.10;;;8.63;;
1296;SDS011;641;48.492;9.184;2022-11-25T22:40:11;20.97;;;9.20;;
1296;SDS011;641;48.492;9.184;2022-11-25T22:42:37;18.77;;;9.20;;
1296;SDS011;641;48.492;9.184;2022-11-25T22:45:04;18.73;;;7.50;;
1296;SDS011;641;48.492;9.184;2022-11-25T22:47:36;21.10;;;8.60;;
1296;SDS011;641;48.492;9.184;2022-11-25T22:50:26;18.57;;;8.17;;
1296;SDS011;641;48.492;9.184;2022-11-25T22:52:54;15.80;;;7.70;;
1296;SDS011;641;48.492;9.184;2022-11-25T22:55:21;17.10;;;7.93;;
1296;SDS011;641;48.492;9.184;2022-11-25T22:57:49;18.90;;;8.33;;
1296;SDS011;641;48.492;9.184;2022-11-25T23:00:21;16.33;;;7.70;;
1296;SDS011;641;48.492;9.184;2022-11-25T23:02:51;16.87;;;7.67;;
1296;SDS011;641;48.492;9.184;2022-11-25T23:05:22;18.13;;;8.47;;
1296;SDS011;641;48.492;9.184;2022-11-25T23:07:49;15.80;;;7.40;;
1296;SDS011;641;48.492;9.184;2022-11-25T23:10:19;18.83;;;8.30;;
1296;SDS011;641;48.492;9.184;2022-11-25T23:12:47;20.50;;;8.03;;
1296;SDS011;641;48.492;9.184;2022-11-25T23:15:16;18.40;;;7.47;;
1296;SDS011;641;48.492;9.184;2022-11-25T23:17:46;18.40;;;6.73;;
1296;SDS011;641;48.492;9.184;2022-11-25T23:20:30;16.13;;;7.63;;
1296;SDS011;641;48.492;9.184;2022-11-25T23:23:01;16.13;;;6.90;;
1296;SDS011;641;48.492;9.184;2022-11-25T23:25:36;16.70;;;6.10;;
1296;SDS011;641;48.492;9.184;2022-11-25T23:28:01;14.93;;;5.27;;
1296;SDS011;641;48.492;9.184;2022-11-25T23:30:27;11.83;;;4.83;;
1296;SDS011;641;48.492;9.184;2022-11-25T23:32:54;13.30;;;4.77;;
1296;SDS011;641;48.492;9.184;2022-11-25T23:35:31;16.47;;;4.80;;
1296;SDS011;641;48.492;9.184;2022-11-25T23:38:01;12.97;;;6.00;;
1296;SDS011;641;48.492;9.184;2022-11-25T23:40:27;14.80;;;7.80;;
1296;SDS011;641;48.492;9.184;2022-11-25T23:42:53;16.23;;;7.80;;
1296;SDS011;641;48.492;9.184;2022-11-25T23:45:21;21.53;;;8.20;;
1296;SDS011;641;48.492;9.184;2022-11-25T23:47:49;20.83;;;11.10;;
1296;SDS011;641;48.492;9.184;2022-11-25T23:50:28;17.50;;;9.07;;
1296;SDS011;641;48.492;9.184;2022-11-25T23:53:03;20.33;;;11.10;;
1296;SDS011;641;48.492;9.184;2022-11-25T23:55:32;21.83;;;10.60;;
1296;SDS011;641;48.492;9.184;2022-11-25T23:58:01;21.20;;;9.10;;
